Latest  Newer  Older  Last 2 hours animation  Current image  Latest image 
Rain/snow radar  Infrared sat images 
Real-time lightning map

All time is UTC (add 2 hours to UTC in wintertime, 3 hours to UTC in DST for Latvia local time)

2021/10/25 17:20 EVRA 251720Z 19009KT CAVOK 06/03 Q1019 R18/090095 NOSIG
2021/10/25 17:20 EVLA 251720Z AUTO 18005KT 9999 BKN250/// 07/04 Q1018
2021/10/25 17:20 EVVA 251720Z AUTO 18007KT CAVOK 06/05 Q1016
2021/10/25 17:20 EYKA 251720Z 16009KT 120V190 CAVOK 06/01 Q1022
2021/10/25 17:20 EYPA 251720Z 16007KT CAVOK 07/03 Q1019
2021/10/25 17:20 EYSA 251720Z 18012KT CAVOK 06/01 Q1020 NOSIG
2021/10/25 17:20 EYVI 251720Z 17012KT CAVOK 04/01 Q1023 NOSIG
2021/10/25 15:20 EEKA 251520Z 21008KT 170V250 9999 OVC023 10/06 Q1014
2021/10/25 17:20 EEKE 251720Z AUTO 22011KT 9999NDV BKN017 OVC020 09/07 Q1015

2021/10/25 17:20 EETN 251720Z 20012KT 9999 BKN014 OVC028 08/05 Q1014 NOSIG
2021/10/25 17:20 EETU 251720Z AUTO 21010KT 9999 NCD 05/02 Q1017
   RIGA AIRPORT     EVRA               56 55N  023 58E   10   X     T          6 LV
   LIEPAJA INTL     EVLA        26406  56 31N  021 06E    4   X                8 LV
   VENTPILS         EVVA               57 21N  021 33E    6   X                8 LV
   KAUNAS           EYKA               54 54N  023 55E   77   X     T          6 LT
   PALANGA INTL     EYPA               55 55N  021 03E   10   X                6 LT
   SIAULIAI INTL    EYSA               55 54N  023 24E  135   X     T          6 LT
   VILNIUS INTL     EYVI        26730  54 38N  025 17E  197   X     T          6 LT
   KARDLA           EEKA        26116  58 59N  022 50E    4   X                8 EE
   KURESSAARE       EEKE               58 14N  022 31E    4   X                8 EE
   PARNU            EEPU               58 25N  024 28E   14   X                8 EE
   TALLINN          EETN        26038  59 24N  024 49E   40   X     T          8 EE
   TARTU            EETU               58 19N  026 41E   67   X                8 EE

cloud coverage image from sat24.com and METAR data from weather.noaa.gov